createdAt,value
2022-11-15T00:02:07.275Z,100.00
2022-11-15T00:07:56.540Z,100.00
2022-11-15T00:13:51.237Z,100.00
2022-11-15T00:19:46.222Z,100.00
2022-11-15T00:25:43.229Z,100.00
2022-11-15T00:31:39.230Z,100.00
2022-11-15T00:37:34.253Z,100.00
2022-11-15T00:43:23.224Z,100.00
2022-11-15T00:49:18.233Z,100.00
2022-11-15T00:55:13.247Z,100.00
2022-11-15T01:01:10.257Z,100.00
2022-11-15T01:07:05.258Z,100.00
2022-11-15T01:13:00.235Z,100.00
2022-11-15T01:18:50.233Z,100.00
2022-11-15T01:24:45.221Z,100.00
2022-11-15T01:30:40.240Z,100.00
2022-11-15T01:36:31.227Z,100.00
2022-11-15T01:42:28.210Z,100.00
2022-11-15T01:48:26.218Z,100.00
2022-11-15T01:54:25.232Z,100.00
2022-11-15T02:00:22.231Z,100.00
2022-11-15T02:06:19.198Z,100.00
2022-11-15T02:12:09.219Z,100.00
2022-11-15T02:18:26.221Z,100.00
2022-11-15T02:25:12.205Z,100.00
2022-11-15T02:31:15.198Z,100.00
2022-11-15T02:37:19.197Z,100.00
2022-11-15T02:43:39.189Z,100.00
2022-11-15T02:49:35.192Z,100.00
2022-11-15T02:55:46.210Z,100.00
2022-11-15T03:09:06.238Z,100.00
2022-11-15T03:15:11.195Z,100.00
2022-11-15T03:21:00.198Z,100.00
2022-11-15T03:26:59.193Z,100.00
2022-11-15T03:32:57.179Z,100.00
2022-11-15T03:38:54.193Z,100.00
2022-11-15T03:44:51.221Z,100.00
2022-11-15T03:50:47.182Z,100.00
2022-11-15T03:56:43.176Z,100.00
2022-11-15T04:02:39.199Z,100.00
2022-11-15T04:08:34.182Z,100.00
2022-11-15T04:14:29.191Z,100.00
2022-11-15T04:20:45.168Z,100.00
2022-11-15T04:26:40.175Z,100.00
2022-11-15T04:32:28.202Z,100.00
2022-11-15T04:38:26.188Z,100.00
2022-11-15T04:44:21.179Z,100.00
2022-11-15T04:50:20.175Z,100.00
2022-11-15T04:56:16.178Z,100.00
2022-11-15T05:02:05.167Z,100.00
2022-11-15T05:08:00.160Z,100.00
2022-11-15T05:13:56.146Z,100.00
2022-11-15T05:19:52.161Z,100.00
2022-11-15T05:25:40.170Z,100.00
2022-11-15T05:31:37.158Z,100.00
2022-11-15T05:37:33.167Z,100.00
2022-11-15T05:43:21.223Z,100.00
2022-11-15T05:49:12.204Z,100.00
2022-11-15T05:55:08.172Z,100.00
2022-11-15T06:01:03.183Z,100.00
2022-11-15T06:06:59.213Z,100.00
2022-11-15T06:12:54.142Z,100.00
2022-11-15T06:18:49.177Z,100.00
2022-11-15T06:24:46.156Z,100.00
2022-11-15T06:30:42.160Z,100.00
2022-11-15T06:36:30.156Z,100.00
2022-11-15T06:42:20.153Z,100.00
2022-11-15T06:48:15.159Z,100.00
2022-11-15T06:54:10.163Z,100.00
2022-11-15T07:00:06.171Z,100.00
2022-11-15T07:06:06.823Z,100.00
2022-11-15T07:12:07.506Z,100.00
2022-11-15T07:18:05.142Z,100.00
2022-11-15T07:24:04.131Z,100.00
2022-11-15T07:30:00.159Z,100.00
2022-11-15T07:35:57.156Z,100.00
2022-11-15T07:41:52.129Z,100.00
2022-11-15T07:47:48.155Z,100.00
2022-11-15T07:53:37.130Z,100.00
2022-11-15T07:59:25.150Z,100.00
2022-11-15T08:05:21.155Z,100.00
2022-11-15T08:11:11.135Z,100.00
2022-11-15T08:17:06.132Z,99.28
2022-11-15T08:23:02.141Z,93.99
2022-11-15T08:28:58.159Z,93.61
2022-11-15T08:34:53.128Z,89.46
2022-11-15T08:40:48.137Z,89.82
2022-11-15T08:46:44.168Z,88.92
2022-11-15T08:52:39.132Z,89.37
2022-11-15T08:58:34.460Z,89.77
2022-11-15T09:04:30.158Z,90.93
2022-11-15T09:10:25.161Z,88.88
2022-11-15T09:16:13.156Z,85.15
2022-11-15T09:22:03.163Z,85.19
2022-11-15T09:27:58.119Z,84.06
2022-11-15T09:33:54.114Z,82.79
2022-11-15T09:39:43.126Z,76.52
2022-11-15T09:45:42.238Z,74.78
2022-11-15T09:51:54.141Z,75.94
2022-11-15T09:57:36.127Z,75.90
2022-11-15T10:03:24.149Z,77.39
2022-11-15T10:09:10.143Z,74.33
2022-11-15T10:14:53.192Z,73.07
2022-11-15T10:20:36.130Z,75.07
2022-11-15T10:26:15.111Z,78.64
2022-11-15T10:31:56.114Z,78.87
2022-11-15T10:37:44.122Z,80.08
2022-11-15T10:43:34.130Z,78.95
2022-11-15T10:49:28.111Z,80.21
2022-11-15T10:55:09.134Z,78.15
2022-11-15T11:00:50.143Z,79.06
2022-11-15T11:06:31.128Z,80.92
2022-11-15T11:12:08.088Z,81.32
2022-11-15T11:18:02.125Z,77.72
2022-11-15T11:24:01.117Z,74.46
2022-11-15T11:29:51.143Z,74.13
2022-11-15T11:35:35.135Z,71.98
2022-11-15T11:41:25.117Z,69.52
2022-11-15T11:47:12.104Z,68.66
2022-11-15T11:52:54.128Z,68.78
2022-11-15T11:58:38.095Z,67.33
2022-11-15T12:04:20.164Z,66.68
2022-11-15T12:10:04.110Z,65.83
2022-11-15T12:15:47.133Z,66.03
2022-11-15T12:21:35.095Z,68.58
2022-11-15T12:27:15.118Z,70.00
2022-11-15T12:32:55.105Z,69.62
2022-11-15T12:39:11.115Z,70.94
2022-11-15T12:45:13.120Z,71.56
2022-11-15T12:51:11.139Z,73.85
2022-11-15T12:56:48.088Z,74.43
2022-11-15T13:02:34.134Z,75.38
2022-11-15T13:08:14.102Z,76.81
2022-11-15T13:14:00.117Z,77.58
2022-11-15T13:19:39.110Z,76.60
2022-11-15T13:25:19.120Z,76.27
2022-11-15T13:30:57.102Z,77.17
2022-11-15T13:36:37.116Z,78.01
2022-11-15T13:42:16.111Z,79.80
2022-11-15T13:47:53.101Z,79.66
2022-11-15T13:53:30.096Z,81.10
2022-11-15T13:59:08.093Z,80.46
2022-11-15T14:04:47.089Z,81.88
2022-11-15T14:10:44.115Z,83.15
2022-11-15T14:16:36.115Z,81.39
2022-11-15T14:22:33.114Z,81.99
2022-11-15T14:28:32.311Z,83.48
2022-11-15T14:34:10.081Z,85.64
2022-11-15T14:39:47.063Z,85.60
2022-11-15T14:45:28.103Z,87.06
2022-11-15T14:51:06.139Z,87.49
2022-11-15T14:56:43.112Z,86.70
2022-11-15T15:02:30.085Z,87.01
2022-11-15T15:08:08.262Z,86.63
2022-11-15T15:13:45.070Z,85.75
2022-11-15T15:19:47.832Z,86.84
2022-11-15T15:25:44.469Z,87.99
2022-11-15T15:31:39.224Z,89.87
2022-11-15T15:37:35.091Z,89.70
2022-11-15T15:43:13.088Z,88.90
2022-11-15T15:48:50.096Z,88.71
2022-11-15T15:54:27.079Z,89.20
2022-11-15T16:00:05.087Z,89.77
2022-11-15T16:05:45.094Z,90.83
2022-11-15T16:11:23.093Z,90.63
2022-11-15T16:17:01.101Z,91.84
2022-11-15T16:22:38.082Z,91.60
2022-11-15T16:28:15.090Z,91.31
2022-11-15T16:33:56.290Z,91.52
2022-11-15T16:40:01.015Z,92.23
2022-11-15T16:45:52.094Z,93.38
2022-11-15T16:51:40.263Z,95.37
2022-11-15T16:57:20.074Z,97.18
2022-11-15T17:02:57.069Z,99.54
2022-11-15T17:08:35.230Z,100.00
2022-11-15T17:14:12.117Z,100.00
2022-11-15T17:19:49.084Z,100.00
2022-11-15T17:25:28.092Z,100.00
2022-11-15T17:31:05.087Z,100.00
2022-11-15T17:36:42.260Z,100.00
2022-11-15T17:42:20.066Z,100.00
2022-11-15T17:48:01.013Z,99.15
2022-11-15T17:53:42.072Z,98.42
2022-11-15T17:59:21.734Z,98.27
2022-11-15T18:05:28.369Z,97.67
2022-11-15T18:11:05.475Z,99.77
2022-11-15T18:16:51.095Z,99.96
2022-11-15T18:22:29.052Z,100.00
2022-11-15T18:28:06.112Z,100.00
2022-11-15T18:33:48.052Z,100.00
2022-11-15T18:39:25.064Z,100.00
2022-11-15T18:45:02.070Z,100.00
2022-11-15T18:50:40.079Z,100.00
2022-11-15T18:56:19.101Z,100.00
2022-11-15T19:01:59.056Z,100.00
2022-11-15T19:07:39.077Z,100.00
2022-11-15T19:13:16.051Z,100.00
2022-11-15T19:18:54.051Z,100.00
2022-11-15T19:24:32.060Z,100.00
2022-11-15T19:30:09.169Z,100.00
2022-11-15T19:35:55.104Z,100.00
2022-11-15T19:41:43.059Z,100.00
2022-11-15T19:47:33.140Z,100.00
2022-11-15T19:53:14.078Z,100.00
2022-11-15T19:58:59.830Z,100.00
2022-11-15T20:04:37.065Z,100.00
2022-11-15T20:10:18.150Z,100.00
2022-11-15T20:15:59.065Z,100.00
2022-11-15T20:21:36.065Z,100.00
2022-11-15T20:27:13.093Z,100.00
2022-11-15T20:32:51.037Z,100.00
2022-11-15T20:38:28.042Z,100.00
2022-11-15T20:44:05.053Z,100.00
2022-11-15T20:49:43.044Z,100.00
2022-11-15T20:55:21.031Z,100.00
2022-11-15T21:00:58.136Z,100.00
2022-11-15T21:06:38.045Z,100.00
2022-11-15T21:12:21.042Z,99.91
2022-11-15T21:18:11.540Z,100.00
2022-11-15T21:23:55.786Z,100.00
2022-11-15T21:29:44.319Z,100.00
2022-11-15T21:35:22.042Z,100.00
2022-11-15T21:41:00.332Z,100.00
2022-11-15T21:46:37.048Z,100.00
2022-11-15T21:52:14.033Z,100.00
2022-11-15T21:57:52.074Z,100.00
2022-11-15T22:03:37.044Z,100.00
2022-11-15T22:09:14.083Z,100.00
2022-11-15T22:14:52.090Z,100.00
2022-11-15T22:20:44.191Z,100.00
2022-11-15T22:26:23.786Z,100.00
2022-11-15T22:32:02.416Z,100.00
2022-11-15T22:37:42.096Z,100.00
2022-11-15T22:43:20.077Z,100.00
2022-11-15T22:49:03.026Z,100.00
2022-11-15T22:54:40.039Z,100.00
2022-11-15T23:00:20.256Z,100.00
2022-11-15T23:05:58.053Z,100.00
2022-11-15T23:11:53.055Z,100.00
2022-11-15T23:17:30.063Z,100.00
2022-11-15T23:23:08.051Z,100.00
2022-11-15T23:28:47.037Z,100.00
2022-11-15T23:34:24.050Z,100.00
2022-11-15T23:40:02.051Z,100.00
2022-11-15T23:45:39.057Z,100.00
2022-11-15T23:51:16.055Z,100.00
2022-11-15T23:56:55.042Z,99.27
